sensor_id;sensor_type;location;lat;lon;timestamp;temperature;humidity
48898;DHT22;34713;50.038;20.000;2022-09-09T00:04:12;22.01;69.86
48898;DHT22;34713;50.038;20.000;2022-09-09T00:09:57;21.95;69.75
48898;DHT22;34713;50.038;20.000;2022-09-09T00:12:38;21.92;69.75
48898;DHT22;34713;50.038;20.000;2022-09-09T00:15:13;21.90;69.76
48898;DHT22;34713;50.038;20.000;2022-09-09T00:21:06;21.92;69.74
48898;DHT22;34713;50.038;20.000;2022-09-09T00:23:39;21.92;69.71
48898;DHT22;34713;50.038;20.000;2022-09-09T00:31:39;21.86;69.76
48898;DHT22;34713;50.038;20.000;2022-09-09T00:34:21;21.84;69.79
48898;DHT22;34713;50.038;20.000;2022-09-09T00:36:51;21.83;69.82
48898;DHT22;34713;50.038;20.000;2022-09-09T00:39:31;21.80;69.92
48898;DHT22;34713;50.038;20.000;2022-09-09T00:47:53;21.79;69.95
48898;DHT22;34713;50.038;20.000;2022-09-09T00:58:33;21.70;69.94
48898;DHT22;34713;50.038;20.000;2022-09-09T01:01:11;21.70;69.99
48898;DHT22;34713;50.038;20.000;2022-09-09T01:03:54;21.66;70.08
48898;DHT22;34713;50.038;20.000;2022-09-09T01:06:31;21.63;70.16
48898;DHT22;34713;50.038;20.000;2022-09-09T01:12:12;21.63;70.15
48898;DHT22;34713;50.038;20.000;2022-09-09T01:14:50;21.63;70.10
48898;DHT22;34713;50.038;20.000;2022-09-09T01:17:28;21.65;70.12
48898;DHT22;34713;50.038;20.000;2022-09-09T01:20:05;21.61;70.11
48898;DHT22;34713;50.038;20.000;2022-09-09T01:25:20;21.65;70.03
48898;DHT22;34713;50.038;20.000;2022-09-09T01:27:49;21.63;70.07
48898;DHT22;34713;50.038;20.000;2022-09-09T01:30:18;21.62;70.11
48898;DHT22;34713;50.038;20.000;2022-09-09T01:32:52;21.61;70.13
48898;DHT22;34713;50.038;20.000;2022-09-09T01:36:05;21.58;70.08
48898;DHT22;34713;50.038;20.000;2022-09-09T01:38:31;21.55;70.03
48898;DHT22;34713;50.038;20.000;2022-09-09T01:40:58;21.55;70.00
48898;DHT22;34713;50.038;20.000;2022-09-09T01:43:25;21.53;69.96
48898;DHT22;34713;50.038;20.000;2022-09-09T01:45:55;21.52;69.99
48898;DHT22;34713;50.038;20.000;2022-09-09T01:48:23;21.48;69.99
48898;DHT22;34713;50.038;20.000;2022-09-09T01:50:50;21.49;69.98
48898;DHT22;34713;50.038;20.000;2022-09-09T01:53:18;21.42;69.98
48898;DHT22;34713;50.038;20.000;2022-09-09T01:55:58;21.42;69.91
48898;DHT22;34713;50.038;20.000;2022-09-09T02:01:21;21.31;69.84
48898;DHT22;34713;50.038;20.000;2022-09-09T02:03:49;21.31;69.79
48898;DHT22;34713;50.038;20.000;2022-09-09T02:08:58;21.21;69.84
48898;DHT22;34713;50.038;20.000;2022-09-09T02:11:28;21.17;69.86
48898;DHT22;34713;50.038;20.000;2022-09-09T02:14:12;21.15;69.91
48898;DHT22;34713;50.038;20.000;2022-09-09T02:16:51;21.10;69.91
48898;DHT22;34713;50.038;20.000;2022-09-09T02:19:31;21.08;69.89
48898;DHT22;34713;50.038;20.000;2022-09-09T02:21:59;21.08;69.89
48898;DHT22;34713;50.038;20.000;2022-09-09T02:24:29;21.05;69.88
48898;DHT22;34713;50.038;20.000;2022-09-09T02:26:57;21.04;69.90
48898;DHT22;34713;50.038;20.000;2022-09-09T02:29:31;21.01;69.92
48898;DHT22;34713;50.038;20.000;2022-09-09T02:32:01;21.00;69.89
48898;DHT22;34713;50.038;20.000;2022-09-09T02:34:30;20.97;69.94
48898;DHT22;34713;50.038;20.000;2022-09-09T02:36:57;20.95;69.93
48898;DHT22;34713;50.038;20.000;2022-09-09T02:39:25;20.95;69.91
48898;DHT22;34713;50.038;20.000;2022-09-09T02:41:51;20.94;69.90
48898;DHT22;34713;50.038;20.000;2022-09-09T02:44:18;20.93;69.82
48898;DHT22;34713;50.038;20.000;2022-09-09T02:47:16;20.90;69.82
48898;DHT22;34713;50.038;20.000;2022-09-09T02:52:23;20.91;69.73
48898;DHT22;34713;50.038;20.000;2022-09-09T02:54:52;20.87;69.73
48898;DHT22;34713;50.038;20.000;2022-09-09T02:57:26;20.83;69.74
48898;DHT22;34713;50.038;20.000;2022-09-09T02:59:53;20.83;69.75
48898;DHT22;34713;50.038;20.000;2022-09-09T03:02:21;20.80;69.78
48898;DHT22;34713;50.038;20.000;2022-09-09T03:04:46;20.79;69.79
48898;DHT22;34713;50.038;20.000;2022-09-09T03:07:14;20.77;69.83
48898;DHT22;34713;50.038;20.000;2022-09-09T03:09:41;20.77;69.83
48898;DHT22;34713;50.038;20.000;2022-09-09T03:12:07;20.73;69.86
48898;DHT22;34713;50.038;20.000;2022-09-09T03:14:33;20.72;69.87
48898;DHT22;34713;50.038;20.000;2022-09-09T03:16:58;20.70;69.86
48898;DHT22;34713;50.038;20.000;2022-09-09T03:19:26;20.70;69.91
48898;DHT22;34713;50.038;20.000;2022-09-09T03:21:53;20.64;69.93
48898;DHT22;34713;50.038;20.000;2022-09-09T03:24:20;20.62;70.01
48898;DHT22;34713;50.038;20.000;2022-09-09T03:26:45;20.57;70.02
48898;DHT22;34713;50.038;20.000;2022-09-09T03:29:12;20.60;70.07
48898;DHT22;34713;50.038;20.000;2022-09-09T03:31:39;20.54;70.06
48898;DHT22;34713;50.038;20.000;2022-09-09T03:34:05;20.54;70.06
48898;DHT22;34713;50.038;20.000;2022-09-09T03:36:31;20.52;70.06
48898;DHT22;34713;50.038;20.000;2022-09-09T03:38:57;20.53;70.12
48898;DHT22;34713;50.038;20.000;2022-09-09T03:41:24;20.52;70.19
48898;DHT22;34713;50.038;20.000;2022-09-09T03:43:56;20.50;70.22
48898;DHT22;34713;50.038;20.000;2022-09-09T03:46:21;20.53;70.23
48898;DHT22;34713;50.038;20.000;2022-09-09T03:48:48;20.53;70.22
48898;DHT22;34713;50.038;20.000;2022-09-09T03:51:14;20.54;70.20
48898;DHT22;34713;50.038;20.000;2022-09-09T03:53:40;20.57;70.17
48898;DHT22;34713;50.038;20.000;2022-09-09T03:56:06;20.57;70.15
48898;DHT22;34713;50.038;20.000;2022-09-09T03:58:33;20.60;70.15
48898;DHT22;34713;50.038;20.000;2022-09-09T04:01:06;20.59;70.16
48898;DHT22;34713;50.038;20.000;2022-09-09T04:03:34;20.57;70.10
48898;DHT22;34713;50.038;20.000;2022-09-09T04:06:02;20.53;70.08
48898;DHT22;34713;50.038;20.000;2022-09-09T04:08:30;20.52;70.17
48898;DHT22;34713;50.038;20.000;2022-09-09T04:11:00;20.50;70.13
48898;DHT22;34713;50.038;20.000;2022-09-09T04:13:27;20.49;70.16
48898;DHT22;34713;50.038;20.000;2022-09-09T04:15:55;20.47;70.21
48898;DHT22;34713;50.038;20.000;2022-09-09T04:18:22;20.47;70.23
48898;DHT22;34713;50.038;20.000;2022-09-09T04:20:50;20.43;70.28
48898;DHT22;34713;50.038;20.000;2022-09-09T04:23:16;20.40;70.28
48898;DHT22;34713;50.038;20.000;2022-09-09T04:25:51;20.40;70.27
48898;DHT22;34713;50.038;20.000;2022-09-09T04:28:15;20.37;70.29
48898;DHT22;34713;50.038;20.000;2022-09-09T04:30:44;20.36;70.33
48898;DHT22;34713;50.038;20.000;2022-09-09T04:33:11;20.36;70.35
48898;DHT22;34713;50.038;20.000;2022-09-09T04:35:38;20.35;70.31
48898;DHT22;34713;50.038;20.000;2022-09-09T04:38:05;20.35;70.26
48898;DHT22;34713;50.038;20.000;2022-09-09T04:40:33;20.36;70.26
48898;DHT22;34713;50.038;20.000;2022-09-09T04:43:00;20.37;70.25
48898;DHT22;34713;50.038;20.000;2022-09-09T04:45:26;20.37;70.24
48898;DHT22;34713;50.038;20.000;2022-09-09T04:47:53;20.37;70.18
48898;DHT22;34713;50.038;20.000;2022-09-09T04:50:19;20.39;70.16
48898;DHT22;34713;50.038;20.000;2022-09-09T04:52:45;20.42;70.17
48898;DHT22;34713;50.038;20.000;2022-09-09T04:55:11;20.45;70.15
48898;DHT22;34713;50.038;20.000;2022-09-09T04:57:39;20.47;70.11
48898;DHT22;34713;50.038;20.000;2022-09-09T05:00:06;20.53;70.04
48898;DHT22;34713;50.038;20.000;2022-09-09T05:02:38;20.56;70.11
48898;DHT22;34713;50.038;20.000;2022-09-09T05:05:05;20.62;70.00
48898;DHT22;34713;50.038;20.000;2022-09-09T05:07:32;20.67;69.90
48898;DHT22;34713;50.038;20.000;2022-09-09T05:09:58;20.77;69.83
48898;DHT22;34713;50.038;20.000;2022-09-09T05:12:24;20.89;69.69
48898;DHT22;34713;50.038;20.000;2022-09-09T05:14:52;20.97;69.50
48898;DHT22;34713;50.038;20.000;2022-09-09T05:17:18;21.07;69.30
48898;DHT22;34713;50.038;20.000;2022-09-09T05:19:44;21.11;69.16
48898;DHT22;34713;50.038;20.000;2022-09-09T05:22:10;21.17;69.02
48898;DHT22;34713;50.038;20.000;2022-09-09T05:24:38;21.19;68.92
48898;DHT22;34713;50.038;20.000;2022-09-09T05:27:04;21.22;68.78
48898;DHT22;34713;50.038;20.000;2022-09-09T05:29:33;21.22;68.68
48898;DHT22;34713;50.038;20.000;2022-09-09T05:31:59;21.27;68.60
48898;DHT22;34713;50.038;20.000;2022-09-09T05:34:25;21.31;68.53
48898;DHT22;34713;50.038;20.000;2022-09-09T05:36:51;21.35;68.38
48898;DHT22;34713;50.038;20.000;2022-09-09T05:39:17;21.40;68.25
48898;DHT22;34713;50.038;20.000;2022-09-09T05:41:43;21.45;68.10
48898;DHT22;34713;50.038;20.000;2022-09-09T05:44:09;21.49;67.98
48898;DHT22;34713;50.038;20.000;2022-09-09T05:46:35;21.56;67.83
48898;DHT22;34713;50.038;20.000;2022-09-09T05:49:02;21.62;67.72
48898;DHT22;34713;50.038;20.000;2022-09-09T05:51:29;21.69;67.55
48898;DHT22;34713;50.038;20.000;2022-09-09T05:53:57;21.76;67.92
48898;DHT22;34713;50.038;20.000;2022-09-09T05:56:29;21.93;68.18
48898;DHT22;34713;50.038;20.000;2022-09-09T05:58:56;22.23;68.11
48898;DHT22;34713;50.038;20.000;2022-09-09T06:01:31;22.52;67.82
48898;DHT22;34713;50.038;20.000;2022-09-09T06:03:57;22.80;67.49
48898;DHT22;34713;50.038;20.000;2022-09-09T06:06:35;23.09;66.81
48898;DHT22;34713;50.038;20.000;2022-09-09T06:09:04;23.36;66.22
48898;DHT22;34713;50.038;20.000;2022-09-09T06:11:38;23.71;65.33
48898;DHT22;34713;50.038;20.000;2022-09-09T06:14:05;24.15;63.87
48898;DHT22;34713;50.038;20.000;2022-09-09T06:16:32;24.71;62.14
48898;DHT22;34713;50.038;20.000;2022-09-09T06:18:58;25.40;60.16
48898;DHT22;34713;50.038;20.000;2022-09-09T06:21:28;26.01;58.48
48898;DHT22;34713;50.038;20.000;2022-09-09T06:23:55;26.21;58.03
48898;DHT22;34713;50.038;20.000;2022-09-09T06:26:35;26.11;58.46
48898;DHT22;34713;50.038;20.000;2022-09-09T06:28:59;25.88;59.05
48898;DHT22;34713;50.038;20.000;2022-09-09T06:31:27;25.69;59.39
48898;DHT22;34713;50.038;20.000;2022-09-09T06:33:57;25.49;59.55
48898;DHT22;34713;50.038;20.000;2022-09-09T06:36:27;25.40;59.77
48898;DHT22;34713;50.038;20.000;2022-09-09T06:38:53;25.46;58.92
48898;DHT22;34713;50.038;20.000;2022-09-09T06:41:21;25.67;58.16
48898;DHT22;34713;50.038;20.000;2022-09-09T06:43:48;25.91;57.55
48898;DHT22;34713;50.038;20.000;2022-09-09T06:46:20;26.05;57.07
48898;DHT22;34713;50.038;20.000;2022-09-09T06:48:47;25.97;57.36
48898;DHT22;34713;50.038;20.000;2022-09-09T06:51:18;25.87;57.33
48898;DHT22;34713;50.038;20.000;2022-09-09T06:53:46;25.69;57.62
48898;DHT22;34713;50.038;20.000;2022-09-09T06:56:33;25.55;57.70
48898;DHT22;34713;50.038;20.000;2022-09-09T06:59:02;25.48;57.85
48898;DHT22;34713;50.038;20.000;2022-09-09T07:01:38;25.38;57.55
48898;DHT22;34713;50.038;20.000;2022-09-09T07:04:06;25.29;57.51
48898;DHT22;34713;50.038;20.000;2022-09-09T07:06:36;25.17;57.76
48898;DHT22;34713;50.038;20.000;2022-09-09T07:09:10;25.12;58.08
48898;DHT22;34713;50.038;20.000;2022-09-09T07:11:40;25.15;57.88
48898;DHT22;34713;50.038;20.000;2022-09-09T07:14:10;25.15;57.90
48898;DHT22;34713;50.038;20.000;2022-09-09T07:16:41;25.17;57.62
48898;DHT22;34713;50.038;20.000;2022-09-09T07:19:07;25.17;57.90
48898;DHT22;34713;50.038;20.000;2022-09-09T07:21:33;25.26;57.65
48898;DHT22;34713;50.038;20.000;2022-09-09T07:24:00;25.29;57.28
48898;DHT22;34713;50.038;20.000;2022-09-09T07:26:29;25.29;57.25
48898;DHT22;34713;50.038;20.000;2022-09-09T07:28:56;25.33;57.20
48898;DHT22;34713;50.038;20.000;2022-09-09T07:31:30;25.35;57.11
48898;DHT22;34713;50.038;20.000;2022-09-09T07:33:57;25.38;56.70
48898;DHT22;34713;50.038;20.000;2022-09-09T07:36:31;25.40;56.49
48898;DHT22;34713;50.038;20.000;2022-09-09T07:39:09;25.48;56.27
48898;DHT22;34713;50.038;20.000;2022-09-09T07:41:48;25.45;56.34
48898;DHT22;34713;50.038;20.000;2022-09-09T07:44:15;25.48;56.52
48898;DHT22;34713;50.038;20.000;2022-09-09T07:46:42;25.45;56.11
48898;DHT22;34713;50.038;20.000;2022-09-09T07:49:09;25.46;55.94
48898;DHT22;34713;50.038;20.000;2022-09-09T07:51:39;25.42;55.93
48898;DHT22;34713;50.038;20.000;2022-09-09T07:54:12;25.36;56.11
48898;DHT22;34713;50.038;20.000;2022-09-09T07:56:41;25.32;56.07
48898;DHT22;34713;50.038;20.000;2022-09-09T07:59:09;25.29;55.99
48898;DHT22;34713;50.038;20.000;2022-09-09T08:01:39;25.30;56.10
48898;DHT22;34713;50.038;20.000;2022-09-09T08:04:12;25.32;55.85
48898;DHT22;34713;50.038;20.000;2022-09-09T08:06:43;25.33;56.00
48898;DHT22;34713;50.038;20.000;2022-09-09T08:09:10;25.36;55.75
48898;DHT22;34713;50.038;20.000;2022-09-09T08:11:36;25.38;55.73
48898;DHT22;34713;50.038;20.000;2022-09-09T08:14:03;25.42;55.65
48898;DHT22;34713;50.038;20.000;2022-09-09T08:16:33;25.45;55.45
48898;DHT22;34713;50.038;20.000;2022-09-09T08:18:59;25.50;54.76
48898;DHT22;34713;50.038;20.000;2022-09-09T08:21:31;25.50;54.62
48898;DHT22;34713;50.038;20.000;2022-09-09T08:23:59;25.56;54.40
48898;DHT22;34713;50.038;20.000;2022-09-09T08:26:31;25.55;54.16
48898;DHT22;34713;50.038;20.000;2022-09-09T08:28:59;25.50;53.85
48898;DHT22;34713;50.038;20.000;2022-09-09T08:31:32;25.48;53.88
48898;DHT22;34713;50.038;20.000;2022-09-09T08:33:59;25.45;53.99
48898;DHT22;34713;50.038;20.000;2022-09-09T08:36:29;25.38;53.83
48898;DHT22;34713;50.038;20.000;2022-09-09T08:38:57;25.32;53.70
48898;DHT22;34713;50.038;20.000;2022-09-09T08:47:36;25.22;54.41
48898;DHT22;34713;50.038;20.000;2022-09-09T08:50:30;25.19;54.39
48898;DHT22;34713;50.038;20.000;2022-09-09T08:53:16;25.12;54.50
48898;DHT22;34713;50.038;20.000;2022-09-09T08:55:59;25.18;54.72
48898;DHT22;34713;50.038;20.000;2022-09-09T08:58:32;25.21;54.63
48898;DHT22;34713;50.038;20.000;2022-09-09T09:06:59;25.36;53.39
48898;DHT22;34713;50.038;20.000;2022-09-09T09:09:46;25.43;53.49
48898;DHT22;34713;50.038;20.000;2022-09-09T09:12:19;25.53;52.92
48898;DHT22;34713;50.038;20.000;2022-09-09T09:14:48;25.57;52.85
48898;DHT22;34713;50.038;20.000;2022-09-09T09:17:18;25.57;52.48
48898;DHT22;34713;50.038;20.000;2022-09-09T09:19:46;25.57;52.39
48898;DHT22;34713;50.038;20.000;2022-09-09T09:22:50;25.62;52.00
48898;DHT22;34713;50.038;20.000;2022-09-09T09:27:58;25.48;52.35
48898;DHT22;34713;50.038;20.000;2022-09-09T09:33:41;25.39;51.34
48898;DHT22;34713;50.038;20.000;2022-09-09T09:36:02;25.33;50.49
48898;DHT22;34713;50.038;20.000;2022-09-09T09:38:29;25.26;50.64
48898;DHT22;34713;50.038;20.000;2022-09-09T09:40:57;25.19;50.79
48898;DHT22;34713;50.038;20.000;2022-09-09T09:43:36;25.15;51.27
48898;DHT22;34713;50.038;20.000;2022-09-09T09:46:00;25.12;51.15
48898;DHT22;34713;50.038;20.000;2022-09-09T09:48:27;25.11;51.35
48898;DHT22;34713;50.038;20.000;2022-09-09T09:51:05;25.12;51.49
48898;DHT22;34713;50.038;20.000;2022-09-09T09:53:32;25.14;51.13
48898;DHT22;34713;50.038;20.000;2022-09-09T09:56:04;25.15;50.98
48898;DHT22;34713;50.038;20.000;2022-09-09T10:01:30;25.22;50.19
48898;DHT22;34713;50.038;20.000;2022-09-09T10:04:20;25.25;49.92
48898;DHT22;34713;50.038;20.000;2022-09-09T10:06:46;25.28;49.71
48898;DHT22;34713;50.038;20.000;2022-09-09T10:09:29;25.32;49.68
48898;DHT22;34713;50.038;20.000;2022-09-09T10:15:24;25.28;49.32
48898;DHT22;34713;50.038;20.000;2022-09-09T10:18:35;25.26;49.46
48898;DHT22;34713;50.038;20.000;2022-09-09T10:21:44;25.25;49.79
48898;DHT22;34713;50.038;20.000;2022-09-09T10:27:22;25.18;49.67
48898;DHT22;34713;50.038;20.000;2022-09-09T10:33:09;25.17;49.67
48898;DHT22;34713;50.038;20.000;2022-09-09T10:41:09;25.25;49.38
48898;DHT22;34713;50.038;20.000;2022-09-09T10:49:37;25.29;48.71
48898;DHT22;34713;50.038;20.000;2022-09-09T10:52:16;25.32;48.60
48898;DHT22;34713;50.038;20.000;2022-09-09T10:55:09;25.38;48.35
48898;DHT22;34713;50.038;20.000;2022-09-09T10:57:41;25.46;47.36
48898;DHT22;34713;50.038;20.000;2022-09-09T11:03:03;25.45;47.19
48898;DHT22;34713;50.038;20.000;2022-09-09T11:05:31;25.46;46.94
48898;DHT22;34713;50.038;20.000;2022-09-09T11:10:58;25.48;47.02
48898;DHT22;34713;50.038;20.000;2022-09-09T11:16:39;25.55;46.64
48898;DHT22;34713;50.038;20.000;2022-09-09T11:19:39;25.57;46.85
48898;DHT22;34713;50.038;20.000;2022-09-09T11:22:35;25.56;46.62
48898;DHT22;34713;50.038;20.000;2022-09-09T11:40:14;25.98;46.76
48898;DHT22;34713;50.038;20.000;2022-09-09T11:42:23;26.04;46.05
48898;DHT22;34713;50.038;20.000;2022-09-09T11:44:46;26.08;45.87
48898;DHT22;34713;50.038;20.000;2022-09-09T11:47:30;26.12;45.60
48898;DHT22;34713;50.038;20.000;2022-09-09T11:52:47;26.24;45.51
48898;DHT22;34713;50.038;20.000;2022-09-09T11:55:32;26.30;44.89
48898;DHT22;34713;50.038;20.000;2022-09-09T12:00:44;26.32;44.25
48898;DHT22;34713;50.038;20.000;2022-09-09T12:03:50;26.35;44.05
48898;DHT22;34713;50.038;20.000;2022-09-09T12:06:32;26.36;43.72
48898;DHT22;34713;50.038;20.000;2022-09-09T12:09:21;26.36;43.64
48898;DHT22;34713;50.038;20.000;2022-09-09T12:11:37;26.35;44.03
48898;DHT22;34713;50.038;20.000;2022-09-09T12:14:03;26.27;44.45
48898;DHT22;34713;50.038;20.000;2022-09-09T12:16:35;26.27;44.26
48898;DHT22;34713;50.038;20.000;2022-09-09T12:19:21;26.17;44.78
48898;DHT22;34713;50.038;20.000;2022-09-09T12:22:03;26.11;45.27
48898;DHT22;34713;50.038;20.000;2022-09-09T12:24:37;26.08;44.81
48898;DHT22;34713;50.038;20.000;2022-09-09T12:27:26;26.01;44.89
48898;DHT22;34713;50.038;20.000;2022-09-09T12:30:10;25.96;45.27
48898;DHT22;34713;50.038;20.000;2022-09-09T12:32:37;25.98;45.50
48898;DHT22;34713;50.038;20.000;2022-09-09T12:35:11;26.00;45.47
48898;DHT22;34713;50.038;20.000;2022-09-09T12:37:53;26.07;44.89
48898;DHT22;34713;50.038;20.000;2022-09-09T12:40:29;26.11;44.75
48898;DHT22;34713;50.038;20.000;2022-09-09T12:42:52;26.18;43.86
48898;DHT22;34713;50.038;20.000;2022-09-09T12:45:23;26.23;42.89
48898;DHT22;34713;50.038;20.000;2022-09-09T12:48:03;26.24;42.71
48898;DHT22;34713;50.038;20.000;2022-09-09T12:50:35;26.31;42.92
48898;DHT22;34713;50.038;20.000;2022-09-09T12:53:07;26.32;42.67
48898;DHT22;34713;50.038;20.000;2022-09-09T12:55:36;26.34;42.67
48898;DHT22;34713;50.038;20.000;2022-09-09T12:58:04;26.36;42.66
48898;DHT22;34713;50.038;20.000;2022-09-09T13:00:33;26.32;42.24
48898;DHT22;34713;50.038;20.000;2022-09-09T13:03:02;26.34;42.01
48898;DHT22;34713;50.038;20.000;2022-09-09T13:05:37;26.30;41.82
48898;DHT22;34713;50.038;20.000;2022-09-09T13:08:09;26.31;41.44
48898;DHT22;34713;50.038;20.000;2022-09-09T13:13:19;26.28;41.41
48898;DHT22;34713;50.038;20.000;2022-09-09T13:15:54;26.31;41.53
48898;DHT22;34713;50.038;20.000;2022-09-09T13:18:27;26.35;41.66
48898;DHT22;34713;50.038;20.000;2022-09-09T13:20:54;26.39;42.17
48898;DHT22;34713;50.038;20.000;2022-09-09T13:23:21;26.45;41.96
48898;DHT22;34713;50.038;20.000;2022-09-09T13:26:19;26.49;41.81
48898;DHT22;34713;50.038;20.000;2022-09-09T13:28:34;26.54;42.01
48898;DHT22;34713;50.038;20.000;2022-09-09T13:31:19;26.55;41.60
48898;DHT22;34713;50.038;20.000;2022-09-09T13:33:37;26.51;41.51
48898;DHT22;34713;50.038;20.000;2022-09-09T13:36:07;26.51;41.70
48898;DHT22;34713;50.038;20.000;2022-09-09T13:41:09;26.56;41.88
48898;DHT22;34713;50.038;20.000;2022-09-09T13:43:45;26.60;42.27
48898;DHT22;34713;50.038;20.000;2022-09-09T13:46:38;26.62;41.67
48898;DHT22;34713;50.038;20.000;2022-09-09T13:51:51;26.63;41.50
48898;DHT22;34713;50.038;20.000;2022-09-09T13:54:20;26.63;41.41
48898;DHT22;34713;50.038;20.000;2022-09-09T13:56:47;26.59;41.63
48898;DHT22;34713;50.038;20.000;2022-09-09T13:59:17;26.58;41.39
48898;DHT22;34713;50.038;20.000;2022-09-09T14:01:45;26.58;41.25
48898;DHT22;34713;50.038;20.000;2022-09-09T14:04:12;26.55;41.47
48898;DHT22;34713;50.038;20.000;2022-09-09T14:06:39;26.58;41.23
48898;DHT22;34713;50.038;20.000;2022-09-09T14:09:06;26.54;41.22
48898;DHT22;34713;50.038;20.000;2022-09-09T14:11:32;26.52;41.50
48898;DHT22;34713;50.038;20.000;2022-09-09T14:13:58;26.45;41.24
48898;DHT22;34713;50.038;20.000;2022-09-09T14:16:24;26.45;41.60
48898;DHT22;34713;50.038;20.000;2022-09-09T14:18:51;26.44;41.99
48898;DHT22;34713;50.038;20.000;2022-09-09T14:21:17;26.39;41.91
48898;DHT22;34713;50.038;20.000;2022-09-09T14:23:43;26.36;41.69
48898;DHT22;34713;50.038;20.000;2022-09-09T14:26:09;26.36;41.80
48898;DHT22;34713;50.038;20.000;2022-09-09T14:28:36;26.34;41.47
48898;DHT22;34713;50.038;20.000;2022-09-09T14:31:03;26.28;41.43
48898;DHT22;34713;50.038;20.000;2022-09-09T14:33:31;26.28;41.68
48898;DHT22;34713;50.038;20.000;2022-09-09T14:36:00;26.27;42.29
48898;DHT22;34713;50.038;20.000;2022-09-09T14:38:32;26.30;42.57
48898;DHT22;34713;50.038;20.000;2022-09-09T14:41:00;26.28;42.40
48898;DHT22;34713;50.038;20.000;2022-09-09T14:43:27;26.20;42.63
48898;DHT22;34713;50.038;20.000;2022-09-09T14:45:53;26.07;42.95
48898;DHT22;34713;50.038;20.000;2022-09-09T14:48:19;25.97;43.26
48898;DHT22;34713;50.038;20.000;2022-09-09T14:50:45;25.88;43.38
48898;DHT22;34713;50.038;20.000;2022-09-09T14:53:10;25.81;43.46
48898;DHT22;34713;50.038;20.000;2022-09-09T14:55:36;25.77;43.56
48898;DHT22;34713;50.038;20.000;2022-09-09T14:58:04;25.73;43.56
48898;DHT22;34713;50.038;20.000;2022-09-09T15:00:30;25.67;43.74
48898;DHT22;34713;50.038;20.000;2022-09-09T15:02:56;25.60;43.88
48898;DHT22;34713;50.038;20.000;2022-09-09T15:05:22;25.56;43.95
48898;DHT22;34713;50.038;20.000;2022-09-09T15:07:50;25.48;43.86
48898;DHT22;34713;50.038;20.000;2022-09-09T15:10:16;25.36;44.02
48898;DHT22;34713;50.038;20.000;2022-09-09T15:12:43;25.28;44.18
48898;DHT22;34713;50.038;20.000;2022-09-09T15:15:10;25.21;44.55
48898;DHT22;34713;50.038;20.000;2022-09-09T15:17:36;25.15;44.61
48898;DHT22;34713;50.038;20.000;2022-09-09T15:20:03;25.12;45.04
48898;DHT22;34713;50.038;20.000;2022-09-09T15:22:31;25.01;45.52
48898;DHT22;34713;50.038;20.000;2022-09-09T15:24:57;24.94;45.77
48898;DHT22;34713;50.038;20.000;2022-09-09T15:27:23;24.85;46.09
48898;DHT22;34713;50.038;20.000;2022-09-09T15:29:49;24.81;45.99
48898;DHT22;34713;50.038;20.000;2022-09-09T15:32:18;24.71;46.10
48898;DHT22;34713;50.038;20.000;2022-09-09T15:34:44;24.61;46.09
48898;DHT22;34713;50.038;20.000;2022-09-09T15:37:11;24.57;46.16
48898;DHT22;34713;50.038;20.000;2022-09-09T15:39:39;24.49;46.37
48898;DHT22;34713;50.038;20.000;2022-09-09T15:42:06;24.42;46.41
48898;DHT22;34713;50.038;20.000;2022-09-09T15:44:43;24.35;46.72
48898;DHT22;34713;50.038;20.000;2022-09-09T15:47:11;24.32;46.89
48898;DHT22;34713;50.038;20.000;2022-09-09T15:49:38;24.26;47.11
48898;DHT22;34713;50.038;20.000;2022-09-09T15:52:04;24.19;47.45
48898;DHT22;34713;50.038;20.000;2022-09-09T15:54:33;24.13;47.69
48898;DHT22;34713;50.038;20.000;2022-09-09T15:57:02;24.08;47.93
48898;DHT22;34713;50.038;20.000;2022-09-09T15:59:31;24.05;48.08
48898;DHT22;34713;50.038;20.000;2022-09-09T16:01:58;24.01;48.11
48898;DHT22;34713;50.038;20.000;2022-09-09T16:04:26;23.96;48.36
48898;DHT22;34713;50.038;20.000;2022-09-09T16:06:58;23.94;48.53
48898;DHT22;34713;50.038;20.000;2022-09-09T16:09:23;23.92;48.71
48898;DHT22;34713;50.038;20.000;2022-09-09T16:11:48;23.92;48.81
48898;DHT22;34713;50.038;20.000;2022-09-09T16:14:15;23.89;48.89
48898;DHT22;34713;50.038;20.000;2022-09-09T16:16:41;23.87;49.10
48898;DHT22;34713;50.038;20.000;2022-09-09T16:19:10;23.84;49.20
48898;DHT22;34713;50.038;20.000;2022-09-09T16:21:42;23.78;49.40
48898;DHT22;34713;50.038;20.000;2022-09-09T16:24:11;23.71;49.60
48898;DHT22;34713;50.038;20.000;2022-09-09T16:26:40;23.65;49.92
48898;DHT22;34713;50.038;20.000;2022-09-09T16:29:06;23.62;50.20
48898;DHT22;34713;50.038;20.000;2022-09-09T16:31:32;23.55;50.39
48898;DHT22;34713;50.038;20.000;2022-09-09T16:33:58;23.50;50.63
48898;DHT22;34713;50.038;20.000;2022-09-09T16:36:27;23.43;50.81
48898;DHT22;34713;50.038;20.000;2022-09-09T16:38:55;23.38;50.95
48898;DHT22;34713;50.038;20.000;2022-09-09T16:41:21;23.33;51.12
48898;DHT22;34713;50.038;20.000;2022-09-09T16:43:47;23.24;51.22
48898;DHT22;34713;50.038;20.000;2022-09-09T16:46:19;23.22;51.43
48898;DHT22;34713;50.038;20.000;2022-09-09T16:48:46;23.13;51.53
48898;DHT22;34713;50.038;20.000;2022-09-09T16:51:31;23.10;51.67
48898;DHT22;34713;50.038;20.000;2022-09-09T16:54:03;23.05;51.75
48898;DHT22;34713;50.038;20.000;2022-09-09T16:56:31;23.00;51.96
48898;DHT22;34713;50.038;20.000;2022-09-09T16:59:02;22.93;52.08
48898;DHT22;34713;50.038;20.000;2022-09-09T17:01:31;22.89;52.22
48898;DHT22;34713;50.038;20.000;2022-09-09T17:04:01;22.88;52.48
48898;DHT22;34713;50.038;20.000;2022-09-09T17:06:29;22.86;52.79
48898;DHT22;34713;50.038;20.000;2022-09-09T17:08:59;22.82;53.03
48898;DHT22;34713;50.038;20.000;2022-09-09T17:11:27;22.79;53.24
48898;DHT22;34713;50.038;20.000;2022-09-09T17:13:54;22.76;53.52
48898;DHT22;34713;50.038;20.000;2022-09-09T17:16:23;22.74;53.76
48898;DHT22;34713;50.038;20.000;2022-09-09T17:18:51;22.71;53.88
48898;DHT22;34713;50.038;20.000;2022-09-09T17:21:21;22.69;53.92
48898;DHT22;34713;50.038;20.000;2022-09-09T17:23:48;22.61;54.06
48898;DHT22;34713;50.038;20.000;2022-09-09T17:26:18;22.58;54.24
48898;DHT22;34713;50.038;20.000;2022-09-09T17:28:44;22.50;54.48
48898;DHT22;34713;50.038;20.000;2022-09-09T17:31:14;22.47;54.62
48898;DHT22;34713;50.038;20.000;2022-09-09T17:33:44;22.44;54.94
48898;DHT22;34713;50.038;20.000;2022-09-09T17:36:16;22.37;55.09
48898;DHT22;34713;50.038;20.000;2022-09-09T17:38:43;22.31;55.36